sensor_id;sensor_type;location;lat;lon;timestamp;P1;durP1;ratioP1;P2;durP2;ratioP2
48777;SDS011;34578;0.000;0.000;2022-12-18T00:00:50;10.48;;;6.35;;
48777;SDS011;34578;0.000;0.000;2022-12-18T00:05:51;10.57;;;6.80;;
48777;SDS011;34578;0.000;0.000;2022-12-18T00:10:52;12.73;;;7.07;;
48777;SDS011;34578;0.000;0.000;2022-12-18T00:15:52;10.47;;;6.47;;
48777;SDS011;34578;0.000;0.000;2022-12-18T00:20:53;12.70;;;6.50;;
48777;SDS011;34578;0.000;0.000;2022-12-18T00:25:53;8.50;;;6.37;;
48777;SDS011;34578;0.000;0.000;2022-12-18T00:31:03;11.18;;;6.57;;
48777;SDS011;34578;0.000;0.000;2022-12-18T00:36:13;9.45;;;6.38;;
48777;SDS011;34578;0.000;0.000;2022-12-18T00:41:16;10.45;;;5.82;;
48777;SDS011;34578;0.000;0.000;2022-12-18T00:46:38;10.30;;;6.03;;
48777;SDS011;34578;0.000;0.000;2022-12-18T00:51:39;10.10;;;6.22;;
48777;SDS011;34578;0.000;0.000;2022-12-18T00:56:39;11.38;;;6.75;;
48777;SDS011;34578;0.000;0.000;2022-12-18T01:01:40;8.30;;;5.43;;
48777;SDS011;34578;0.000;0.000;2022-12-18T01:06:40;10.07;;;6.67;;
48777;SDS011;34578;0.000;0.000;2022-12-18T01:11:41;9.13;;;5.80;;
48777;SDS011;34578;0.000;0.000;2022-12-18T01:16:41;12.02;;;6.40;;
48777;SDS011;34578;0.000;0.000;2022-12-18T01:21:41;10.30;;;6.53;;
48777;SDS011;34578;0.000;0.000;2022-12-18T01:26:42;8.85;;;5.90;;
48777;SDS011;34578;0.000;0.000;2022-12-18T01:31:42;8.07;;;5.43;;
48777;SDS011;34578;0.000;0.000;2022-12-18T01:36:43;8.38;;;5.80;;
48777;SDS011;34578;0.000;0.000;2022-12-18T01:41:44;7.60;;;5.82;;
48777;SDS011;34578;0.000;0.000;2022-12-18T01:47:03;7.30;;;5.40;;
48777;SDS011;34578;0.000;0.000;2022-12-18T01:52:04;7.73;;;5.83;;
48777;SDS011;34578;0.000;0.000;2022-12-18T01:57:04;10.45;;;5.95;;
48777;SDS011;34578;0.000;0.000;2022-12-18T02:02:05;8.30;;;5.75;;
48777;SDS011;34578;0.000;0.000;2022-12-18T02:18:04;8.10;;;6.10;;
48777;SDS011;34578;0.000;0.000;2022-12-18T02:28:51;7.10;;;5.53;;
48777;SDS011;34578;0.000;0.000;2022-12-18T02:33:55;9.13;;;5.35;;
48777;SDS011;34578;0.000;0.000;2022-12-18T02:38:58;9.60;;;5.65;;
48777;SDS011;34578;0.000;0.000;2022-12-18T02:44:01;6.63;;;5.55;;
48777;SDS011;34578;0.000;0.000;2022-12-18T03:00:04;10.70;;;5.80;;
48777;SDS011;34578;0.000;0.000;2022-12-18T03:05:14;8.10;;;5.72;;
48777;SDS011;34578;0.000;0.000;2022-12-18T03:10:23;6.47;;;5.15;;
48777;SDS011;34578;0.000;0.000;2022-12-18T03:15:29;8.55;;;5.90;;
48777;SDS011;34578;0.000;0.000;2022-12-18T03:20:41;8.30;;;5.70;;
48777;SDS011;34578;0.000;0.000;2022-12-18T03:25:46;8.77;;;5.28;;
48777;SDS011;34578;0.000;0.000;2022-12-18T03:30:52;8.38;;;5.13;;
48777;SDS011;34578;0.000;0.000;2022-12-18T03:35:56;11.57;;;5.47;;
48777;SDS011;34578;0.000;0.000;2022-12-18T03:57:31;6.47;;;4.80;;
48777;SDS011;34578;0.000;0.000;2022-12-18T04:02:33;6.75;;;5.03;;
48777;SDS011;34578;0.000;0.000;2022-12-18T04:07:37;11.20;;;5.65;;
48777;SDS011;34578;0.000;0.000;2022-12-18T04:12:42;7.20;;;4.63;;
48777;SDS011;34578;0.000;0.000;2022-12-18T04:17:47;7.40;;;4.47;;
48777;SDS011;34578;0.000;0.000;2022-12-18T04:22:50;9.07;;;5.10;;
48777;SDS011;34578;0.000;0.000;2022-12-18T04:27:53;7.85;;;5.43;;
48777;SDS011;34578;0.000;0.000;2022-12-18T04:32:53;9.40;;;4.97;;
48777;SDS011;34578;0.000;0.000;2022-12-18T04:37:55;7.13;;;4.93;;
48777;SDS011;34578;0.000;0.000;2022-12-18T04:42:56;8.63;;;4.73;;
48777;SDS011;34578;0.000;0.000;2022-12-18T04:47:57;7.73;;;4.70;;
48777;SDS011;34578;0.000;0.000;2022-12-18T04:52:59;6.03;;;4.40;;
48777;SDS011;34578;0.000;0.000;2022-12-18T04:57:59;8.30;;;4.93;;
48777;SDS011;34578;0.000;0.000;2022-12-18T05:03:00;6.47;;;4.70;;
48777;SDS011;34578;0.000;0.000;2022-12-18T05:08:02;6.95;;;5.00;;
48777;SDS011;34578;0.000;0.000;2022-12-18T05:13:02;6.00;;;4.40;;
48777;SDS011;34578;0.000;0.000;2022-12-18T05:18:03;7.63;;;4.97;;
48777;SDS011;34578;0.000;0.000;2022-12-18T05:23:04;7.47;;;4.60;;
48777;SDS011;34578;0.000;0.000;2022-12-18T05:28:04;8.30;;;4.57;;
48777;SDS011;34578;0.000;0.000;2022-12-18T05:33:04;6.45;;;5.00;;
48777;SDS011;34578;0.000;0.000;2022-12-18T05:38:05;8.20;;;4.80;;
48777;SDS011;34578;0.000;0.000;2022-12-18T05:43:05;5.17;;;4.13;;
48777;SDS011;34578;0.000;0.000;2022-12-18T05:48:06;8.87;;;5.00;;
48777;SDS011;34578;0.000;0.000;2022-12-18T05:53:08;7.35;;;4.65;;
48777;SDS011;34578;0.000;0.000;2022-12-18T05:58:09;6.97;;;4.68;;
48777;SDS011;34578;0.000;0.000;2022-12-18T06:03:11;5.95;;;4.68;;
48777;SDS011;34578;0.000;0.000;2022-12-18T06:08:12;6.05;;;4.47;;
48777;SDS011;34578;0.000;0.000;2022-12-18T06:13:13;6.47;;;5.20;;
48777;SDS011;34578;0.000;0.000;2022-12-18T06:18:13;6.80;;;4.63;;
48777;SDS011;34578;0.000;0.000;2022-12-18T06:23:14;6.63;;;4.40;;
48777;SDS011;34578;0.000;0.000;2022-12-18T06:28:14;5.07;;;4.37;;
48777;SDS011;34578;0.000;0.000;2022-12-18T06:33:14;6.53;;;5.67;;
48777;SDS011;34578;0.000;0.000;2022-12-18T06:38:15;5.88;;;4.55;;
48777;SDS011;34578;0.000;0.000;2022-12-18T06:43:16;5.40;;;4.07;;
48777;SDS011;34578;0.000;0.000;2022-12-18T06:48:17;7.40;;;4.68;;
48777;SDS011;34578;0.000;0.000;2022-12-18T06:53:17;5.63;;;4.40;;
48777;SDS011;34578;0.000;0.000;2022-12-18T06:58:17;5.97;;;4.60;;
48777;SDS011;34578;0.000;0.000;2022-12-18T07:03:18;7.03;;;4.57;;
48777;SDS011;34578;0.000;0.000;2022-12-18T07:08:18;5.67;;;4.20;;
48777;SDS011;34578;0.000;0.000;2022-12-18T07:13:19;5.40;;;4.22;;
48777;SDS011;34578;0.000;0.000;2022-12-18T07:18:19;8.32;;;5.15;;
48777;SDS011;34578;0.000;0.000;2022-12-18T07:23:20;5.57;;;4.43;;
48777;SDS011;34578;0.000;0.000;2022-12-18T07:28:20;8.87;;;4.53;;
48777;SDS011;34578;0.000;0.000;2022-12-18T07:33:20;6.97;;;4.90;;
48777;SDS011;34578;0.000;0.000;2022-12-18T07:38:21;8.63;;;4.87;;
48777;SDS011;34578;0.000;0.000;2022-12-18T07:43:22;7.22;;;4.47;;
48777;SDS011;34578;0.000;0.000;2022-12-18T07:48:22;6.93;;;4.73;;
48777;SDS011;34578;0.000;0.000;2022-12-18T07:53:22;8.23;;;5.33;;
48777;SDS011;34578;0.000;0.000;2022-12-18T07:58:23;9.40;;;5.07;;
48777;SDS011;34578;0.000;0.000;2022-12-18T08:03:23;5.60;;;4.70;;
48777;SDS011;34578;0.000;0.000;2022-12-18T08:08:23;6.40;;;5.20;;
48777;SDS011;34578;0.000;0.000;2022-12-18T08:13:24;6.63;;;5.63;;
48777;SDS011;34578;0.000;0.000;2022-12-18T08:18:25;6.50;;;5.32;;
48777;SDS011;34578;0.000;0.000;2022-12-18T08:23:26;6.45;;;5.65;;
48777;SDS011;34578;0.000;0.000;2022-12-18T08:28:27;6.78;;;5.05;;
48777;SDS011;34578;0.000;0.000;2022-12-18T08:33:27;8.13;;;5.83;;
48777;SDS011;34578;0.000;0.000;2022-12-18T08:38:29;9.45;;;6.82;;
48777;SDS011;34578;0.000;0.000;2022-12-18T08:43:29;9.68;;;6.80;;
48777;SDS011;34578;0.000;0.000;2022-12-18T08:48:50;9.05;;;6.97;;
48777;SDS011;34578;0.000;0.000;2022-12-18T08:53:51;12.30;;;9.88;;
48777;SDS011;34578;0.000;0.000;2022-12-18T08:58:52;13.77;;;8.20;;
48777;SDS011;34578;0.000;0.000;2022-12-18T09:03:53;11.60;;;8.77;;
48777;SDS011;34578;0.000;0.000;2022-12-18T09:08:54;11.00;;;8.37;;
48777;SDS011;34578;0.000;0.000;2022-12-18T09:13:54;12.03;;;8.40;;
48777;SDS011;34578;0.000;0.000;2022-12-18T09:18:56;10.23;;;7.38;;
48777;SDS011;34578;0.000;0.000;2022-12-18T09:23:59;9.18;;;7.80;;
48777;SDS011;34578;0.000;0.000;2022-12-18T09:28:59;10.00;;;7.68;;
48777;SDS011;34578;0.000;0.000;2022-12-18T09:34:00;12.50;;;7.77;;
48777;SDS011;34578;0.000;0.000;2022-12-18T09:39:00;13.53;;;8.67;;
48777;SDS011;34578;0.000;0.000;2022-12-18T09:44:03;14.50;;;8.47;;
48777;SDS011;34578;0.000;0.000;2022-12-18T09:49:24;10.93;;;8.15;;
48777;SDS011;34578;0.000;0.000;2022-12-18T09:54:33;12.00;;;8.05;;
48777;SDS011;34578;0.000;0.000;2022-12-18T09:59:38;9.30;;;7.30;;
48777;SDS011;34578;0.000;0.000;2022-12-18T10:04:39;8.45;;;6.50;;
48777;SDS011;34578;0.000;0.000;2022-12-18T10:09:52;12.13;;;6.85;;
48777;SDS011;34578;0.000;0.000;2022-12-18T10:15:04;12.68;;;7.07;;
48777;SDS011;34578;0.000;0.000;2022-12-18T10:20:32;9.07;;;7.28;;
48777;SDS011;34578;0.000;0.000;2022-12-18T10:25:50;10.77;;;7.25;;
48777;SDS011;34578;0.000;0.000;2022-12-18T10:31:02;8.25;;;6.82;;
48777;SDS011;34578;0.000;0.000;2022-12-18T10:36:05;10.10;;;6.60;;
48777;SDS011;34578;0.000;0.000;2022-12-18T10:46:19;13.30;;;6.85;;
48777;SDS011;34578;0.000;0.000;2022-12-18T10:56:27;9.97;;;6.40;;
48777;SDS011;34578;0.000;0.000;2022-12-18T11:07:12;8.57;;;5.22;;
48777;SDS011;34578;0.000;0.000;2022-12-18T11:12:19;8.33;;;5.60;;
48777;SDS011;34578;0.000;0.000;2022-12-18T11:22:23;6.93;;;4.60;;
48777;SDS011;34578;0.000;0.000;2022-12-18T11:27:27;7.03;;;4.93;;
48777;SDS011;34578;0.000;0.000;2022-12-18T11:32:43;6.25;;;4.70;;
48777;SDS011;34578;0.000;0.000;2022-12-18T11:37:53;6.18;;;4.22;;
48777;SDS011;34578;0.000;0.000;2022-12-18T11:43:07;8.20;;;4.75;;
48777;SDS011;34578;0.000;0.000;2022-12-18T11:48:14;7.45;;;4.75;;
48777;SDS011;34578;0.000;0.000;2022-12-18T11:53:19;8.30;;;4.40;;
48777;SDS011;34578;0.000;0.000;2022-12-18T12:08:59;7.32;;;4.40;;
48777;SDS011;34578;0.000;0.000;2022-12-18T12:14:38;5.55;;;4.78;;
48777;SDS011;34578;0.000;0.000;2022-12-18T12:30:32;6.70;;;4.78;;
48777;SDS011;34578;0.000;0.000;2022-12-18T12:41:23;6.18;;;4.90;;
48777;SDS011;34578;0.000;0.000;2022-12-18T12:46:45;6.32;;;4.53;;
48777;SDS011;34578;0.000;0.000;2022-12-18T12:51:58;6.30;;;4.97;;
48777;SDS011;34578;0.000;0.000;2022-12-18T12:57:08;6.70;;;4.80;;
48777;SDS011;34578;0.000;0.000;2022-12-18T13:07:46;6.47;;;5.22;;
48777;SDS011;34578;0.000;0.000;2022-12-18T13:33:48;12.60;;;6.35;;
48777;SDS011;34578;0.000;0.000;2022-12-18T13:49:41;9.63;;;6.13;;
48777;SDS011;34578;0.000;0.000;2022-12-18T13:54:43;6.25;;;5.55;;
48777;SDS011;34578;0.000;0.000;2022-12-18T13:59:48;7.65;;;5.70;;
48777;SDS011;34578;0.000;0.000;2022-12-18T14:04:48;7.27;;;5.50;;
48777;SDS011;34578;0.000;0.000;2022-12-18T14:09:52;8.45;;;6.13;;
48777;SDS011;34578;0.000;0.000;2022-12-18T14:14:54;7.47;;;6.00;;
48777;SDS011;34578;0.000;0.000;2022-12-18T14:19:54;8.47;;;6.77;;
48777;SDS011;34578;0.000;0.000;2022-12-18T14:35:24;8.63;;;6.72;;
48777;SDS011;34578;0.000;0.000;2022-12-18T14:40:24;8.90;;;6.63;;
48777;SDS011;34578;0.000;0.000;2022-12-18T14:45:35;8.40;;;7.47;;
48777;SDS011;34578;0.000;0.000;2022-12-18T14:50:38;11.48;;;7.38;;
48777;SDS011;34578;0.000;0.000;2022-12-18T14:55:38;17.58;;;13.07;;
48777;SDS011;34578;0.000;0.000;2022-12-18T15:00:46;17.30;;;12.60;;
48777;SDS011;34578;0.000;0.000;2022-12-18T15:05:47;15.57;;;12.30;;
48777;SDS011;34578;0.000;0.000;2022-12-18T15:10:48;15.73;;;11.50;;
48777;SDS011;34578;0.000;0.000;2022-12-18T15:15:48;16.55;;;11.48;;
48777;SDS011;34578;0.000;0.000;2022-12-18T15:20:50;12.15;;;10.38;;
48777;SDS011;34578;0.000;0.000;2022-12-18T15:25:58;14.60;;;11.30;;
48777;SDS011;34578;0.000;0.000;2022-12-18T15:36:14;12.65;;;10.30;;
48777;SDS011;34578;0.000;0.000;2022-12-18T15:41:18;15.57;;;11.98;;
48777;SDS011;34578;0.000;0.000;2022-12-18T15:46:21;15.70;;;9.90;;
48777;SDS011;34578;0.000;0.000;2022-12-18T15:51:24;13.77;;;10.70;;
48777;SDS011;34578;0.000;0.000;2022-12-18T15:56:28;14.40;;;10.30;;
48777;SDS011;34578;0.000;0.000;2022-12-18T16:01:48;14.32;;;10.13;;
48777;SDS011;34578;0.000;0.000;2022-12-18T16:06:50;14.30;;;10.48;;
48777;SDS011;34578;0.000;0.000;2022-12-18T16:11:51;14.00;;;10.40;;
48777;SDS011;34578;0.000;0.000;2022-12-18T16:16:52;14.07;;;9.00;;
48777;SDS011;34578;0.000;0.000;2022-12-18T16:22:00;13.38;;;8.95;;
48777;SDS011;34578;0.000;0.000;2022-12-18T16:27:00;15.30;;;10.07;;
48777;SDS011;34578;0.000;0.000;2022-12-18T16:32:01;14.07;;;10.27;;
48777;SDS011;34578;0.000;0.000;2022-12-18T16:37:02;16.90;;;10.57;;
48777;SDS011;34578;0.000;0.000;2022-12-18T16:42:05;16.17;;;11.77;;
48777;SDS011;34578;0.000;0.000;2022-12-18T16:47:12;18.52;;;13.13;;
48777;SDS011;34578;0.000;0.000;2022-12-18T16:52:13;19.33;;;13.18;;
48777;SDS011;34578;0.000;0.000;2022-12-18T16:57:15;16.13;;;12.05;;
48777;SDS011;34578;0.000;0.000;2022-12-18T17:02:21;20.92;;;13.40;;
48777;SDS011;34578;0.000;0.000;2022-12-18T17:07:23;17.10;;;12.20;;
48777;SDS011;34578;0.000;0.000;2022-12-18T17:12:25;14.23;;;10.77;;
48777;SDS011;34578;0.000;0.000;2022-12-18T17:17:26;16.60;;;12.18;;
48777;SDS011;34578;0.000;0.000;2022-12-18T17:22:26;17.90;;;12.03;;
48777;SDS011;34578;0.000;0.000;2022-12-18T17:27:27;15.70;;;11.50;;
48777;SDS011;34578;0.000;0.000;2022-12-18T17:32:27;18.10;;;11.53;;
48777;SDS011;34578;0.000;0.000;2022-12-18T17:37:27;15.30;;;10.97;;
48777;SDS011;34578;0.000;0.000;2022-12-18T17:42:28;15.23;;;11.07;;
48777;SDS011;34578;0.000;0.000;2022-12-18T17:47:28;14.43;;;11.17;;
48777;SDS011;34578;0.000;0.000;2022-12-18T17:52:28;16.25;;;10.55;;
48777;SDS011;34578;0.000;0.000;2022-12-18T17:57:29;15.88;;;11.02;;
48777;SDS011;34578;0.000;0.000;2022-12-18T18:02:29;14.63;;;10.83;;
48777;SDS011;34578;0.000;0.000;2022-12-18T18:07:30;15.77;;;10.88;;
48777;SDS011;34578;0.000;0.000;2022-12-18T18:12:31;11.53;;;9.43;;
48777;SDS011;34578;0.000;0.000;2022-12-18T18:17:50;16.45;;;10.10;;
48777;SDS011;34578;0.000;0.000;2022-12-18T18:22:51;15.90;;;10.60;;
48777;SDS011;34578;0.000;0.000;2022-12-18T18:27:51;12.00;;;10.33;;
48777;SDS011;34578;0.000;0.000;2022-12-18T18:32:51;17.17;;;10.37;;
48777;SDS011;34578;0.000;0.000;2022-12-18T18:37:52;17.27;;;11.10;;
48777;SDS011;34578;0.000;0.000;2022-12-18T18:42:52;13.00;;;10.53;;
48777;SDS011;34578;0.000;0.000;2022-12-18T18:47:52;13.97;;;9.80;;
48777;SDS011;34578;0.000;0.000;2022-12-18T18:52:53;12.13;;;9.90;;
48777;SDS011;34578;0.000;0.000;2022-12-18T18:57:53;13.17;;;10.07;;
48777;SDS011;34578;0.000;0.000;2022-12-18T19:02:53;13.33;;;10.40;;
48777;SDS011;34578;0.000;0.000;2022-12-18T19:07:54;16.27;;;10.73;;
48777;SDS011;34578;0.000;0.000;2022-12-18T19:12:54;13.00;;;10.07;;
48777;SDS011;34578;0.000;0.000;2022-12-18T19:18:13;12.50;;;9.35;;
48777;SDS011;34578;0.000;0.000;2022-12-18T19:23:14;14.38;;;10.95;;
48777;SDS011;34578;0.000;0.000;2022-12-18T19:28:15;11.80;;;10.10;;
48777;SDS011;34578;0.000;0.000;2022-12-18T19:33:15;11.90;;;9.63;;
48777;SDS011;34578;0.000;0.000;2022-12-18T19:38:16;13.43;;;9.33;;
48777;SDS011;34578;0.000;0.000;2022-12-18T19:43:16;13.68;;;10.57;;
48777;SDS011;34578;0.000;0.000;2022-12-18T19:48:17;11.63;;;10.43;;
48777;SDS011;34578;0.000;0.000;2022-12-18T19:53:18;13.73;;;10.37;;
48777;SDS011;34578;0.000;0.000;2022-12-18T19:58:18;14.80;;;9.33;;
48777;SDS011;34578;0.000;0.000;2022-12-18T20:03:19;12.80;;;10.30;;
48777;SDS011;34578;0.000;0.000;2022-12-18T20:08:19;12.75;;;9.90;;
48777;SDS011;34578;0.000;0.000;2022-12-18T20:13:20;13.15;;;9.50;;
48777;SDS011;34578;0.000;0.000;2022-12-18T20:18:20;12.03;;;9.90;;
48777;SDS011;34578;0.000;0.000;2022-12-18T20:23:20;12.98;;;9.63;;
48777;SDS011;34578;0.000;0.000;2022-12-18T20:28:22;13.93;;;9.90;;
48777;SDS011;34578;0.000;0.000;2022-12-18T20:33:23;14.75;;;9.30;;
48777;SDS011;34578;0.000;0.000;2022-12-18T20:38:23;11.70;;;9.67;;
48777;SDS011;34578;0.000;0.000;2022-12-18T20:43:24;12.17;;;9.27;;
48777;SDS011;34578;0.000;0.000;2022-12-18T20:48:24;13.00;;;9.50;;
48777;SDS011;34578;0.000;0.000;2022-12-18T20:53:25;12.97;;;10.57;;
48777;SDS011;34578;0.000;0.000;2022-12-18T20:58:25;13.48;;;10.13;;
48777;SDS011;34578;0.000;0.000;2022-12-18T21:03:25;13.10;;;9.90;;
48777;SDS011;34578;0.000;0.000;2022-12-18T21:08:26;12.17;;;9.60;;
48777;SDS011;34578;0.000;0.000;2022-12-18T21:13:26;15.20;;;9.40;;
48777;SDS011;34578;0.000;0.000;2022-12-18T21:18:27;10.70;;;9.43;;
48777;SDS011;34578;0.000;0.000;2022-12-18T21:23:27;10.20;;;9.07;;
48777;SDS011;34578;0.000;0.000;2022-12-18T21:28:27;12.97;;;9.80;;
48777;SDS011;34578;0.000;0.000;2022-12-18T21:33:28;10.40;;;8.13;;
48777;SDS011;34578;0.000;0.000;2022-12-18T21:38:28;11.33;;;8.97;;
48777;SDS011;34578;0.000;0.000;2022-12-18T21:43:28;11.52;;;8.95;;
48777;SDS011;34578;0.000;0.000;2022-12-18T21:48:48;10.25;;;8.70;;
48777;SDS011;34578;0.000;0.000;2022-12-18T21:53:48;11.03;;;7.87;;
48777;SDS011;34578;0.000;0.000;2022-12-18T21:58:49;11.50;;;8.07;;
48777;SDS011;34578;0.000;0.000;2022-12-18T22:03:50;13.75;;;8.02;;
48777;SDS011;34578;0.000;0.000;2022-12-18T22:08:50;9.97;;;8.30;;
48777;SDS011;34578;0.000;0.000;2022-12-18T22:13:51;9.27;;;7.70;;
48777;SDS011;34578;0.000;0.000;2022-12-18T22:18:51;10.20;;;8.20;;
48777;SDS011;34578;0.000;0.000;2022-12-18T22:23:55;12.20;;;7.97;;
48777;SDS011;34578;0.000;0.000;2022-12-18T22:28:57;12.60;;;8.57;;
48777;SDS011;34578;0.000;0.000;2022-12-18T22:34:16;10.02;;;7.38;;
48777;SDS011;34578;0.000;0.000;2022-12-18T22:39:20;8.63;;;7.15;;
48777;SDS011;34578;0.000;0.000;2022-12-18T22:44:22;11.88;;;7.68;;
48777;SDS011;34578;0.000;0.000;2022-12-18T22:49:23;11.80;;;7.03;;
48777;SDS011;34578;0.000;0.000;2022-12-18T22:54:25;9.23;;;7.70;;
48777;SDS011;34578;0.000;0.000;2022-12-18T22:59:25;12.67;;;7.87;;
48777;SDS011;34578;0.000;0.000;2022-12-18T23:04:26;9.27;;;7.20;;
48777;SDS011;34578;0.000;0.000;2022-12-18T23:09:27;12.32;;;7.57;;
48777;SDS011;34578;0.000;0.000;2022-12-18T23:14:28;8.83;;;6.97;;
48777;SDS011;34578;0.000;0.000;2022-12-18T23:19:29;8.68;;;6.30;;
48777;SDS011;34578;0.000;0.000;2022-12-18T23:24:29;8.43;;;6.47;;
48777;SDS011;34578;0.000;0.000;2022-12-18T23:29:29;9.60;;;6.43;;
48777;SDS011;34578;0.000;0.000;2022-12-18T23:34:30;7.93;;;6.20;;
48777;SDS011;34578;0.000;0.000;2022-12-18T23:39:30;8.30;;;6.07;;
48777;SDS011;34578;0.000;0.000;2022-12-18T23:44:31;9.60;;;6.77;;
48777;SDS011;34578;0.000;0.000;2022-12-18T23:49:31;10.30;;;5.53;;
48777;SDS011;34578;0.000;0.000;2022-12-18T23:54:31;9.00;;;5.90;;
48777;SDS011;34578;0.000;0.000;2022-12-18T23:59:32;9.50;;;6.47;;
